Flight Track Log - Related Links

Times and Time Zones

All times are in EDT time to prevent confusion due to time zone crossing. See the AAL1328 flight status page for this flight to view local times or setup timezone preferences in your user account.


Time Position Orientation Groundspeed Altitude Reporting Facility
EDT Latitude Longitude Course Direction KTS MPH feet Rate Location/Type
Sat 11:38:59 PM 25.8006 -80.2606 18° North 172 198 900  Level Miami Center
Sat 11:40:12 PM 25.8083 -80.1894 83° East 191 220 2,300 1,579 Climbing Miami Center
Sat 11:41:00 PM 26.1603 -79.5106 56° Northeast  Level FlightAware Approximate
Sat 11:41:12 PM 25.8331 -80.1208 68° East 215 247 4,400  Level Miami Center
Sat 11:42:00 PM 26.3228 -79.2657 53° Northeast  Level FlightAware Approximate
Sat 11:42:14 PM 25.8722 -80.0433 61° Northeast 253 291 6,800  Level Miami Center
Sat 11:43:00 PM 26.5256 -79.0894 13° North  Level FlightAware Approximate
Sat 11:43:14 PM 25.9094 -79.9658 62° Northeast 264 304 9,100  Level Miami Center
Sat 11:44:00 PM 26.7856 -79.0019 18° North  Level FlightAware Approximate
Sat 11:44:13 PM 25.9531 -79.8814 60° Northeast 286 329 11,100  Level Miami Center
Sat 11:45:11 PM 25.9989 -79.7878 61° Northeast 315 362 13,400 2,033 Climbing Miami Center
Sat 11:46:14 PM 26.0569 -79.6922 56° Northeast 347 399 15,200 1,974 Climbing Miami Center
Sat 11:51:37 PM 26.6358 -79.2966 30° Northeast 469 540 26,100 1,931 Climbing FlightAware ADS-B
Sat 11:52:30 PM 26.7374 -79.2310 30° Northeast 478 550 27,300 1,640 Climbing FlightAware ADS-B
Sat 11:54:29 PM 26.9667 -79.0821 30° Northeast 468 539 30,800 1,815 Climbing FlightAware ADS-B
Sat 11:55:12 PM 27.0443 -79.0315 30° Northeast 459 528 32,200 1,692 Climbing FlightAware ADS-B
Sat 11:55:47 PM 27.1093 -78.9894 30° Northeast 459 528 33,000 1,590 Climbing FlightAware ADS-B
Sat 11:56:35 PM 27.1971 -78.9319 31° Northeast 448 516 34,400 1,692 Climbing FlightAware ADS-B
Sat 11:57:05 PM 27.2490 -78.8979 30° Northeast 444 511 35,200 1,300 Climbing FlightAware ADS-B
Sat 11:57:35 PM 27.3023 -78.8630 30° Northeast 445 512 35,700 800 Climbing FlightAware ADS-B
Sat 11:58:05 PM 27.3579 -78.8303 23° Northeast 435 501 36,000 759 Climbing FlightAware ADS-B
Sat 11:58:54 PM 27.4489 -78.8010 15° North 423 487 36,700 759 Climbing FlightAware ADS-B
Sat 11:59:24 PM 27.5031 -78.7851 15° North 424 488 37,000 243 Climbing FlightAware ADS-B
Sun 12:00:08 AM 27.5891 -78.7607 14° North 423 487 37,000  Level FlightAware ADS-B
Sun 12:00:56 AM 27.6813 -78.7350 14° North 421 484 37,000  Level FlightAware ADS-B
Sun 12:01:41 AM 27.7685 -78.7108 14° North 422 486 37,000  Level FlightAware ADS-B
Sun 12:02:13 AM 27.8273 -78.6941 14° North 421 484 37,000  Level FlightAware ADS-B
Sun 12:02:54 AM 27.9037 -78.6725 14° North 421 484 37,000  Level FlightAware ADS-B
Sun 12:03:25 AM 27.9630 -78.6556 14° North 420 483 37,000  Level FlightAware ADS-B
Sun 12:04:02 AM 28.0240 -78.6385 14° North 420 483 37,000  Level FlightAware ADS-B
Sun 12:04:34 AM 28.0929 -78.6190 14° North 419 482 37,000  Level FlightAware ADS-B
Sun 12:05:09 AM 28.1603 -78.5999 14° North 419 482 37,000  Level FlightAware ADS-B
Sun 12:05:48 AM 28.2326 -78.5793 14° North 418 481 37,000  Level FlightAware ADS-B
Sun 12:06:22 AM 28.2892 -78.5632 14° North 417 480 37,000 -71 Level FlightAware ADS-B
Sun 12:07:13 AM 28.3722 -78.5436 14° North 413 475 36,900 -55 Descending Miami Center
Sun 12:08:11 AM 28.4853 -78.5097 15° North 408 470 36,900 51 Level Miami Center
Sun 12:09:11 AM 28.5961 -78.4783 14° North 413 475 37,000 49 Climbing Miami Center
Sun 12:10:14 AM 28.7050 -78.4444 15° North 413 475 37,000  Level Miami Center
Sun 12:11:12 AM 28.8181 -78.4153 13° North 413 475 37,000  Level Miami Center
Sun 12:12:13 AM 28.9333 -78.3836 14° North 418 481 37,000  Level Miami Center
Sun 12:13:11 AM 29.0400 -78.3494 16° North 412 474 37,000  Level Miami Center
Sun 12:14:11 AM 29.1508 -78.3153 15° North 412 474 37,000  Level Miami Center
Sun 12:15:11 AM 29.2722 -78.2908 10° North 416 479 37,000  Level Miami Center
Sun 12:16:11 AM 29.3747 -78.2539 17° North 413 475 37,000 -35 Level Miami Center
Sun 12:18:04 AM 29.5931 -78.1831 16° North 405 466 36,900 -35 Descending Jacksonville Center
Sun 12:19:04 AM 29.7089 -78.1583 11° North 400 460 36,900 50 Level Jacksonville Center
Sun 12:20:04 AM 29.8119 -78.1222 17° North 401 461 37,000 50 Climbing Jacksonville Center
Sun 12:21:04 AM 29.9217 -78.0931 13° North 401 461 37,000 -50 Level Jacksonville Center
Sun 12:22:04 AM 30.0267 -78.0567 17° North 401 461 36,900  Descending Jacksonville Center
Sun 12:23:04 AM 30.1361 -78.0247 14° North 401 461 37,000 50 Climbing Jacksonville Center
Sun 12:24:04 AM 30.2475 -77.9925 14° North 396 456 37,000  Level Jacksonville Center
Sun 12:25:04 AM 30.3589 -77.9581 15° North 396 456 37,000 -50 Level Jacksonville Center
Sun 12:26:04 AM 30.4683 -77.9258 14° North 396 456 36,900  Descending Jacksonville Center
Sun 12:27:04 AM 30.5794 -77.8886 16° North 406 467 37,000 50 Climbing Jacksonville Center
Sun 12:28:04 AM 30.6911 -77.8611 12° North 406 467 37,000  Level Jacksonville Center
Sun 12:29:04 AM 30.8022 -77.8214 17° North 406 467 37,000  Level Jacksonville Center
Sun 12:30:04 AM 30.9139 -77.7983 10° North 410 472 37,000 -50 Level Jacksonville Center
Sun 12:31:04 AM 31.0253 -77.7608 16° North 412 474 36,900 -50 Descending Jacksonville Center
Sun 12:32:04 AM 31.1367 -77.7306 13° North 409 471 36,900  Level Jacksonville Center
Sun 12:33:04 AM 31.2478 -77.6881 18° North 413 475 36,900 50 Level Jacksonville Center
Sun 12:34:04 AM 31.3614 -77.6597 12° North 410 472 37,000 50 Climbing Jacksonville Center
Sun 12:35:04 AM 31.4728 -77.6292 13° North 417 480 37,000 -50 Level Jacksonville Center
Sun 12:36:04 AM 31.5819 -77.5936 16° North 413 475 36,900  Descending Jacksonville Center
Sun 12:37:04 AM 31.6953 -77.5581 15° North 414 476 37,000 50 Climbing Jacksonville Center
Sun 12:38:04 AM 31.8067 -77.5272 13° North 406 467 37,000  Level Jacksonville Center
Sun 12:39:04 AM 31.9219 -77.4911 15° North 412 474 37,000  Level Jacksonville Center
Sun 12:40:04 AM 32.0353 -77.4575 14° North 412 474 37,000  Level Jacksonville Center
Sun 12:41:04 AM 32.1486 -77.4214 15° North 412 474 37,000  Level Jacksonville Center
Sun 12:42:04 AM 32.2636 -77.3825 16° North 412 474 37,000  Level Jacksonville Center
Sun 12:43:04 AM 32.3772 -77.3511 13° North 417 480 37,000  Level Jacksonville Center
Sun 12:44:04 AM 32.4942 -77.3094 17° North 423 487 37,000  Level Jacksonville Center
Sun 12:45:04 AM 32.6078 -77.2803 12° North 423 487 37,000  Level Jacksonville Center
Sun 12:47:02 AM 32.8300 -77.2103 15° North 419 482 37,000 34 Level Washington Center
Sun 12:48:03 AM 32.9411 -77.1753 15° North 414 476 37,100 550 Climbing Washington Center
Sun 12:49:02 AM 33.0519 -77.1400 15° North 414 476 38,100 958 Climbing Washington Center
Sun 12:50:02 AM 33.1631 -77.1050 15° North 414 476 39,000 450 Climbing Washington Center
Sun 12:51:02 AM 33.2742 -77.0697 15° North 409 471 39,000  Level Washington Center
Sun 12:52:05 AM 33.3828 -77.0367 14° North 409 471 39,000  Level Washington Center
Sun 12:53:02 AM 33.4961 -77.0014 15° North 409 471 39,000  Level Washington Center
Sun 12:54:05 AM 33.6069 -76.9658 15° North 414 476 39,000 -49 Level Washington Center
Sun 12:55:04 AM 33.7178 -76.9303 15° North 414 476 38,900 -50 Descending Washington Center
Sun 12:56:05 AM 33.8247 -76.8944 16° North 414 476 38,900 51 Level Washington Center
Sun 12:57:02 AM 33.9378 -76.8586 15° North 409 471 39,000 51 Climbing Washington Center
Sun 12:58:02 AM 34.0486 -76.8228 15° North 409 471 39,000  Level Washington Center
Sun 12:59:05 AM 34.1575 -76.7892 14° North 409 471 39,000  Level Washington Center
Sun 01:00:05 AM 34.2664 -76.7531 15° North 409 471 39,000  Level Washington Center
Sun 01:01:02 AM 34.3794 -76.7194 14° North 409 471 39,000  Level Washington Center
Sun 01:02:02 AM 34.4861 -76.6781 18° North 409 471 39,000 -50 Level Washington Center
Sun 01:03:02 AM 34.6011 -76.6442 14° North 415 478 38,900  Descending Washington Center
Sun 01:04:02 AM 34.7119 -76.6078 15° North 415 478 39,000  Climbing Washington Center
Sun 01:05:02 AM 34.8250 -76.5739 14° North 415 478 38,900  Descending Washington Center
Sun 01:06:05 AM 34.9358 -76.5372 15° North 415 478 39,000 50 Climbing Washington Center
Sun 01:07:02 AM 35.0467 -76.5028 14° North 410 472 39,000  Level Washington Center
Sun 01:08:02 AM 35.1472 -76.4658 17° North 410 472 39,000 -50 Level Washington Center
Sun 01:09:02 AM 35.2558 -76.4289 16° North 410 472 38,900  Descending Washington Center
Sun 01:10:04 AM 35.3667 -76.3919 15° North 410 472 39,000 50 Climbing Washington Center
Sun 01:11:02 AM 35.4775 -76.3572 14° North 404 465 39,000 -51 Level Washington Center
Sun 01:12:02 AM 35.5864 -76.3175 17° North 404 465 38,900  Descending Washington Center
Sun 01:13:02 AM 35.7014 -76.2800 15° North 409 471 39,000 50 Climbing Washington Center
Sun 01:14:02 AM 35.8142 -76.2400 16° North 409 471 39,000  Level Washington Center
Sun 01:15:02 AM 35.9269 -76.2025 15° North 414 476 39,000  Level Washington Center
Sun 01:16:02 AM 36.0419 -76.1650 15° North 414 476 39,000  Level Washington Center
Sun 01:17:02 AM 36.1547 -76.1272 15° North 414 476 39,000  Level Washington Center
Sun 01:18:05 AM 36.2697 -76.0892 15° North 414 476 39,000  Level Washington Center
Sun 01:19:02 AM 36.3867 -76.0486 16° North 414 476 39,000  Level Washington Center
Sun 01:20:02 AM 36.5017 -76.0106 15° North 414 476 39,000  Level Washington Center
Sun 01:21:02 AM 36.6186 -75.9697 16° North 420 483 39,000  Level Washington Center
Sun 01:22:02 AM 36.7333 -75.9289 16° North 420 483 39,000  Level Washington Center
Sun 01:23:02 AM 36.8525 -75.8853 16° North 426 490 39,000  Level Washington Center
Sun 01:24:02 AM 36.9861 -75.8311 18° North 448 516 39,000 -50 Level Washington Center
Sun 01:25:02 AM 37.1031 -75.7794 19° North 453 521 38,900  Descending Washington Center
Sun 01:26:04 AM 37.2178 -75.7222 22° Northeast 448 516 39,000 50 Climbing Washington Center
Sun 01:27:02 AM 37.3347 -75.6675 20° North 448 516 39,000  Level Washington Center
Sun 01:28:02 AM 37.4514 -75.6103 21° North 448 516 39,000  Level Washington Center
Sun 01:29:02 AM 37.5725 -75.5578 19° North 448 516 39,000 -417 Level Washington Center
Sun 01:33:04 AM 38.0517 -75.3172 21° North 467 537 36,900 -1,488 Descending FlightAware ADS-B (KWWD)
Sun 01:35:21 AM 38.3264 -75.1836 21° North 468 539 29,600 -3,034 Descending FlightAware ADS-B (KWWD)
Sun 01:36:02 AM 38.4080 -75.1428 22° Northeast 454 522 27,900 -2,500 Descending FlightAware ADS-B (KWWD)
Sun 01:36:33 AM 38.4692 -75.1126 22° Northeast 446 513 26,600 -2,435 Descending FlightAware ADS-B (KWWD)
Sun 01:37:11 AM 38.5429 -75.0760 22° Northeast 436 502 25,100 -2,366 Descending FlightAware ADS-B (KWWD)
Sun 01:37:44 AM 38.6048 -75.0454 22° Northeast 430 495 23,800 -2,417 Descending FlightAware ADS-B (KWWD)
Sun 01:38:23 AM 38.6790 -75.0086 21° North 429 494 22,200 -2,320 Descending FlightAware ADS-B (KWWD)
Sun 01:38:59 AM 38.7447 -74.9761 22° Northeast 413 475 20,900 -2,216 Descending FlightAware ADS-B (KWWD)
Sun 01:40:14 AM 38.8769 -74.9099 22° Northeast 402 463 18,100 -2,304 Descending FlightAware ADS-B (KWWD)
Sun 01:40:51 AM 38.9403 -74.8782 22° Northeast 386 444 16,600 -2,087 Descending FlightAware ADS-B (KWWD)
Sun 01:41:00 AM 38.9439 -74.8763 21° North 393 452 16,500 -2,286 Descending FlightAware ADS-B (EGBB / BHX)
Sun 01:41:33 AM 39.0104 -74.8432 21° North 384 442 15,000 -2,429 Descending FlightAware ADS-B (KWWD)
Sun 01:42:24 AM 39.0948 -74.8073 North 353 406 13,100 -2,262 Descending FlightAware ADS-B (KWWD)
Sun 01:42:34 AM 39.1111 -74.8079 356° North 352 405 12,700 -2,400 Descending FlightAware ADS-B (KWWD)
Sun 01:42:44 AM 39.1278 -74.8123 345° North 338 389 12,300 -2,100 Descending FlightAware ADS-B (KWWD)
Sun 01:42:54 AM 39.1425 -74.8179 343° North 338 389 12,000 -1,895 Descending FlightAware ADS-B (KWWD)
Sun 01:43:03 AM 39.1561 -74.8230 343° North 335 386 11,700 -2,211 Descending FlightAware ADS-B (KWWD)
Sun 01:43:13 AM 39.1717 -74.8289 343° North 333 383 11,300 -2,286 Descending FlightAware ADS-B (KWWD)
Sun 01:43:24 AM 39.1875 -74.8349 344° North 340 391 10,900 -2,000 Descending FlightAware ADS-B (KWWD)
Sun 01:43:34 AM 39.2029 -74.8405 344° North 337 388 10,600 -1,200 Descending FlightAware ADS-B (KWWD)
Sun 01:43:54 AM 39.2317 -74.8513 344° North 321 369 10,300 -615 Descending FlightAware ADS-B (KWWD)
Sun 01:44:13 AM 39.2587 -74.8616 344° North 303 349 10,200 -414 Descending FlightAware ADS-B (KWWD)
Sun 01:44:23 AM 39.2718 -74.8665 343° North 288 331 10,100 -600 Descending FlightAware ADS-B (KWWD)
Sun 01:44:33 AM 39.2846 -74.8714 344° North 287 330 10,000 -600 Descending FlightAware ADS-B (KWWD)
Sun 01:44:43 AM 39.2969 -74.8761 343° North 272 313 9,900 -600 Descending FlightAware ADS-B (KWWD)
Sun 01:44:53 AM 39.3101 -74.8811 344° North 272 313 9,800 -581 Descending FlightAware ADS-B (KWWD)
Sun 01:45:14 AM 39.3346 -74.8904 343° North 256 295 9,600 -878 Descending FlightAware ADS-B (KWWD)
Sun 01:45:34 AM 39.3581 -74.8992 344° North 253 291 9,200 -1,297 Descending FlightAware ADS-B (KWWD)
Sun 01:45:51 AM 39.3772 -74.9063 343° North 252 290 8,800 -649 Descending FlightAware ADS-B (KWWD)
Sun 01:46:11 AM 39.4008 -74.9154 343° North 256 295 8,800 -140 Level FlightAware ADS-B (KWWD)
Sun 01:46:34 AM 39.4267 -74.9253 343° North 250 288 8,700 -615 Descending FlightAware ADS-B (KWWD)
Sun 01:46:50 AM 39.4450 -74.9321 344° North 256 295 8,400 -1,174 Descending FlightAware ADS-B (KWWD)
Sun 01:47:20 AM 39.4714 -74.9420 345° North 258 297 7,800 -1,333 Descending FlightAware ADS-B (KPHL)
Sun 01:47:35 AM 39.4957 -74.9504 345° North 255 293 7,400 -1,500 Descending FlightAware ADS-B (KWWD)
Sun 01:47:40 AM 39.5013 -74.9523 346° North 252 290 7,300 -774 Descending FlightAware ADS-B (KWWD)
Sun 01:48:06 AM 39.5233 -74.9597 345° North 250 288 7,000 -955 Descending FlightAware ADS-B (KPHL)
Sun 01:48:24 AM 39.5513 -74.9692 345° North 238 274 6,600 -1,000 Descending FlightAware ADS-B (KWWD)
Sun 01:48:48 AM 39.5692 -74.9754 345° North 239 275 6,300 -900 Descending FlightAware ADS-B (KPHL)
Sun 01:49:04 AM 39.5861 -74.9813 345° North 235 270 6,000 -909 Descending FlightAware ADS-B (KPHL)
Sun 01:49:21 AM 39.6037 -74.9872 345° North 231 266 5,800 -444 Descending FlightAware ADS-B (KPHL)
Sun 01:49:31 AM 39.6212 -74.9934 344° North 218 251 5,800  Level FlightAware ADS-B (KWWD)
Sun 01:49:50 AM 39.6337 -74.9978 345° North 226 260 5,800  Level FlightAware ADS-B (KPHL)
Sun 01:50:06 AM 39.6471 -75.0025 345° North 230 265 5,800  Level FlightAware ADS-B (KPHL)
Sun 01:50:21 AM 39.6646 -75.0086 345° North 222 255 5,800 -286 Level FlightAware ADS-B (KPHL)
Sun 01:50:27 AM 39.6775 -75.0132 344° North 203 234 5,700  Descending FlightAware ADS-B (KWWD)
Sun 01:50:50 AM 39.6922 -75.0183 345° North 204 235 5,800 -333 Climbing FlightAware ADS-B (KPHL)
Sun 01:51:21 AM 39.6996 -75.0209 345° North 200 230 5,400 -842 Descending FlightAware ADS-B (KPHL)
Sun 01:51:47 AM 39.7419 -75.0357 345° North 186 214 5,000 -971 Descending FlightAware ADS-B (KPHL)
Sun 01:52:29 AM 39.7753 -75.0471 345° North 165 190 4,300 -903 Descending FlightAware ADS-B (KPHL)
Sun 01:53:20 AM 39.8120 -75.0599 345° North 161 185 3,600 -804 Descending FlightAware ADS-B (KPHL)
Sun 01:54:06 AM 39.8448 -75.0715 344° North 160 184 3,000 -818 Descending FlightAware ADS-B (KPHL)
Sun 01:54:48 AM 39.8555 -75.0754 346° North 153 176 2,400 -837 Descending FlightAware ADS-B (KPHL)
Sun 01:55:32 AM 39.8981 -75.1021 289° West 141 162 1,800 -846 Descending FlightAware ADS-B (KPHL)
Sun 01:56:06 AM 39.8937 -75.1287 255° West 135 155 1,300 -628 Descending FlightAware ADS-B (KPHL)
Sun 01:56:58 AM 39.8833 -75.1667 255° West 135 155 900 -589 Descending Philadelphia TRACON
Sun 01:57:58 AM 39.8833 -75.2167 270° West 129 148 200 -700 Descending Philadelphia TRACON

Login

Don't have an account? Register now (free) for customized features, flight alerts, and more!